Thailine 5 — 9WFF5 — position and weather

sailwx.info

Track history (hours):
 
Tides and Currents Weather Stations Pressure Air Temp Water Temp Dewpoint Dewpoint Depression Visibility Wind Speed Wind Dir Waves Ship Positions

Thailine 5

Last reported at 2016-Dec-08 09:33 UTC. Time now 2016-Dec-11 06:22 UTC.
Position N 34°07' E 134°57'.

; draft 5.1 m.

Type: Cargo ship. MMSI: 533399000.

Date/timePositionNaut miles runAvg speedWind from/ knotsBaromVisibWave heightAir tempDewpointWater temp
2016-Dec-08 09:33N 34°07' E 134°57'1411.8
2016-Dec-08 08:22N 34°21' E 134°60'911.6
2016-Dec-08 07:33N 34°27' E 135°09'1111.3
2016-Dec-08 06:33N 34°36' E 135°17'6 6.1
2016-Dec-08 05:31N 34°42' E 135°17'0 0.0
2016-Dec-08 04:31N 34°42' E 135°17'0 0.0
2016-Dec-08 03:07N 34°42' E 135°17'0 0.0
2016-Dec-08 02:25N 34°42' E 135°17'0 0.0
2016-Dec-08 01:25N 34°42' E 135°17'0 0.0
2016-Dec-08 00:31N 34°42' E 135°17'0 0.0
2016-Dec-07 23:25N 34°42' E 135°17'0 0.0
2016-Dec-07 22:28N 34°42' E 135°17'3 3.7
2016-Dec-07 21:33N 34°39' E 135°19'10 9.8
2016-Dec-07 20:33N 34°30' E 135°14'9 7.9
2016-Dec-07 19:27N 34°24' E 135°06'3 2.8
2016-Dec-07 18:33N 34°23' E 135°03'10 9.7
2016-Dec-07 17:33N 34°29' E 135°12'1211.5
2016-Dec-07 16:31N 34°21' E 135°01'1110.9
2016-Dec-07 15:32N 34°11' E 134°59'1110.9
2016-Dec-07 14:31N 33°60' E 134°59'247 7.7
2016-Dec-06 06:32N 35°12' E 139°46'1111.4
2016-Dec-06 05:33N 35°22' E 139°42'5 5.2
2016-Dec-06 04:33N 35°27' E 139°41'0 0.0
2016-Dec-06 03:33N 35°27' E 139°41'0 0.0
2016-Dec-06 02:33N 35°27' E 139°41'0 0.0
2016-Dec-06 01:33N 35°27' E 139°41'0 0.0
2016-Dec-06 00:30N 35°27' E 139°41'0 0.0
2016-Dec-05 23:33N 35°27' E 139°41'0 0.0
2016-Dec-05 22:33N 35°27' E 139°41'2 1.9
2016-Dec-05 21:33N 35°26' E 139°42'0 0.0
2016-Dec-05 20:33N 35°26' E 139°42'0 0.1
2016-Dec-05 19:33N 35°26' E 139°42'0 0.0
2016-Dec-05 18:33N 35°26' E 139°42'0 0.1
2016-Dec-05 17:33N 35°26' E 139°42'0 0.0
2016-Dec-05 16:33N 35°26' E 139°42'0 0.0
2016-Dec-05 15:33N 35°26' E 139°42'0 0.0
2016-Dec-05 14:33N 35°26' E 139°42'0 0.1
2016-Dec-05 13:33N 35°26' E 139°42'0 0.0
2016-Dec-05 12:33N 35°26' E 139°42'0 0.0
2016-Dec-05 11:33N 35°26' E 139°42'0 0.1
2016-Dec-05 10:33N 35°26' E 139°42'0 0.0
2016-Dec-05 08:33N 35°26' E 139°42'0 0.1
2016-Dec-05 07:33N 35°26' E 139°42'0 0.3
2016-Dec-05 06:33N 35°26' E 139°42'1010.1
2016-Dec-05 05:33N 35°31' E 139°53'1110.8
2016-Dec-05 04:33N 35°36' E 140°05'  
2016-Dec-02 08:23N 35°34' E 139°60'0 0.0
2016-Dec-02 07:14N 35°34' E 139°60'0 0.0
2016-Dec-02 06:14N 35°34' E 139°60'0 0.0
2016-Dec-01 19:10N 35°34' E 139°60'0 0.0
2016-Dec-01 15:29N 35°34' E 139°60'0 0.0
2016-Dec-01 14:13N 35°34' E 139°60'0 0.0
2016-Dec-01 12:33N 35°34' E 139°60'0 0.0
2016-Dec-01 11:05N 35°34' E 139°60'0 0.1
2016-Dec-01 10:30N 35°34' E 139°60'0 0.0
2016-Dec-01 09:24N 35°34' E 139°60'0 0.1
2016-Dec-01 08:32N 35°34' E 139°60'0 0.0
2016-Nov-30 08:21N 35°34' E 139°60'0 0.4
2016-Nov-30 07:33N 35°34' E 139°60'10 9.6
2016-Nov-30 06:34N 35°28' E 139°51'1110.7
2016-Nov-30 05:33N 35°18' E 139°45'1111.1
2016-Nov-30 04:33N 35°07' E 139°47'  
Track history (hours):
 
Tides and Currents Weather Stations Pressure Air Temp Water Temp Dewpoint Dewpoint Depression Visibility Wind Speed Wind Dir Waves Ship Positions

Thailine 5

Last reported at 2016-Dec-08 09:33 UTC. Time now 2016-Dec-11 06:22 UTC.
Position N 34°07' E 134°57'.

; draft 5.1 m.

Type: Cargo ship. MMSI: 533399000.

Date/timePositionNaut miles runAvg speedWind from/ knotsBaromVisibWave heightAir tempDewpointWater temp
2016-Dec-08 09:33N 34°07' E 134°57'1411.8
2016-Dec-08 08:22N 34°21' E 134°60'911.6
2016-Dec-08 07:33N 34°27' E 135°09'1111.3
2016-Dec-08 06:33N 34°36' E 135°17'6 6.1
2016-Dec-08 05:31N 34°42' E 135°17'0 0.0
2016-Dec-08 04:31N 34°42' E 135°17'0 0.0
2016-Dec-08 03:07N 34°42' E 135°17'0 0.0
2016-Dec-08 02:25N 34°42' E 135°17'0 0.0
2016-Dec-08 01:25N 34°42' E 135°17'0 0.0
2016-Dec-08 00:31N 34°42' E 135°17'0 0.0
2016-Dec-07 23:25N 34°42' E 135°17'0 0.0
2016-Dec-07 22:28N 34°42' E 135°17'3 3.7
2016-Dec-07 21:33N 34°39' E 135°19'10 9.8
2016-Dec-07 20:33N 34°30' E 135°14'9 7.9
2016-Dec-07 19:27N 34°24' E 135°06'3 2.8
2016-Dec-07 18:33N 34°23' E 135°03'10 9.7
2016-Dec-07 17:33N 34°29' E 135°12'1211.5
2016-Dec-07 16:31N 34°21' E 135°01'1110.9
2016-Dec-07 15:32N 34°11' E 134°59'1110.9
2016-Dec-07 14:31N 33°60' E 134°59'247 7.7
2016-Dec-06 06:32N 35°12' E 139°46'1111.4
2016-Dec-06 05:33N 35°22' E 139°42'5 5.2
2016-Dec-06 04:33N 35°27' E 139°41'0 0.0
2016-Dec-06 03:33N 35°27' E 139°41'0 0.0
2016-Dec-06 02:33N 35°27' E 139°41'0 0.0
2016-Dec-06 01:33N 35°27' E 139°41'0 0.0
2016-Dec-06 00:30N 35°27' E 139°41'0 0.0
2016-Dec-05 23:33N 35°27' E 139°41'0 0.0
2016-Dec-05 22:33N 35°27' E 139°41'2 1.9
2016-Dec-05 21:33N 35°26' E 139°42'0 0.0
2016-Dec-05 20:33N 35°26' E 139°42'0 0.1
2016-Dec-05 19:33N 35°26' E 139°42'0 0.0
2016-Dec-05 18:33N 35°26' E 139°42'0 0.1
2016-Dec-05 17:33N 35°26' E 139°42'0 0.0
2016-Dec-05 16:33N 35°26' E 139°42'0 0.0
2016-Dec-05 15:33N 35°26' E 139°42'0 0.0
2016-Dec-05 14:33N 35°26' E 139°42'0 0.1
2016-Dec-05 13:33N 35°26' E 139°42'0 0.0
2016-Dec-05 12:33N 35°26' E 139°42'0 0.0
2016-Dec-05 11:33N 35°26' E 139°42'0 0.1
2016-Dec-05 10:33N 35°26' E 139°42'0 0.0
2016-Dec-05 08:33N 35°26' E 139°42'0 0.1
2016-Dec-05 07:33N 35°26' E 139°42'0 0.3
2016-Dec-05 06:33N 35°26' E 139°42'1010.1
2016-Dec-05 05:33N 35°31' E 139°53'1110.8
2016-Dec-05 04:33N 35°36' E 140°05'  
2016-Dec-02 08:23N 35°34' E 139°60'0 0.0
2016-Dec-02 07:14N 35°34' E 139°60'0 0.0
2016-Dec-02 06:14N 35°34' E 139°60'0 0.0
2016-Dec-01 19:10N 35°34' E 139°60'0 0.0
2016-Dec-01 15:29N 35°34' E 139°60'0 0.0
2016-Dec-01 14:13N 35°34' E 139°60'0 0.0
2016-Dec-01 12:33N 35°34' E 139°60'0 0.0
2016-Dec-01 11:05N 35°34' E 139°60'0 0.1
2016-Dec-01 10:30N 35°34' E 139°60'0 0.0
2016-Dec-01 09:24N 35°34' E 139°60'0 0.1
2016-Dec-01 08:32N 35°34' E 139°60'0 0.0
2016-Nov-30 08:21N 35°34' E 139°60'0 0.4
2016-Nov-30 07:33N 35°34' E 139°60'10 9.6
2016-Nov-30 06:34N 35°28' E 139°51'1110.7
2016-Nov-30 05:33N 35°18' E 139°45'1111.1
2016-Nov-30 04:33N 35°07' E 139°47'  

Dump ship's entire track history